Time;durP1;ratioP1;P1;durP2;ratioP2;P2;SDS_P1;SDS_P2;PMS_P1;PMS_P2;Temp;Humidity;BMP_temperature;BMP_pressure;BME280_temperature;BME280_humidity;BME280_pressure;Samples;Min_cycle;Max_cycle;Signal;HPM_P1;HPM_P2
2023/08/11 00:02:22;;;;;;;9.23;5.47;;;17.80;99.90;;;;;;5014211;28;20108;-73
2023/08/11 00:04:49;;;;;;;9.43;5.10;;;17.70;99.90;;;;;;5032127;28;20391;-73
2023/08/11 00:07:15;;;;;;;8.23;5.45;;;17.60;99.90;;;;;;5014963;28;20524;-73
2023/08/11 00:09:41;;;;;;;8.40;6.00;;;17.70;99.90;;;;;;5029038;28;20061;-73
2023/08/11 00:12:06;;;;;;;8.30;5.05;;;17.70;99.90;;;;;;5015377;28;20072;-73
2023/08/11 00:14:32;;;;;;;8.35;4.72;;;17.60;99.90;;;;;;5031961;28;20079;-73
2023/08/11 00:16:58;;;;;;;8.57;5.38;;;17.70;99.90;;;;;;5031697;28;20049;-73
2023/08/11 00:19:24;;;;;;;7.50;4.95;;;17.60;99.90;;;;;;5030327;28;20091;-73
2023/08/11 00:21:50;;;;;;;10.43;5.65;;;17.60;99.90;;;;;;5015121;28;20041;-73
2023/08/11 00:24:16;;;;;;;9.50;5.47;;;17.50;99.90;;;;;;5031921;28;20045;-73
2023/08/11 00:26:41;;;;;;;7.93;5.95;;;17.50;99.90;;;;;;5030859;28;20124;-73
2023/08/11 00:29:07;;;;;;;10.48;5.68;;;17.50;99.90;;;;;;5030914;28;20133;-73
2023/08/11 00:31:33;;;;;;;9.55;5.47;;;17.30;99.90;;;;;;5012159;28;20046;-73
2023/08/11 00:33:58;;;;;;;8.25;5.40;;;17.40;99.90;;;;;;5028292;28;20060;-73
2023/08/11 00:36:24;;;;;;;9.45;6.10;;;17.40;99.90;;;;;;5023976;28;20041;-73
2023/08/11 00:38:49;;;;;;;10.32;6.53;;;17.40;99.90;;;;;;5007414;28;20041;-73
2023/08/11 00:41:16;;;;;;;9.02;6.05;;;17.30;99.90;;;;;;5031556;28;20052;-73
2023/08/11 00:43:42;;;;;;;10.45;6.28;;;17.30;99.90;;;;;;5026060;28;20113;-73
2023/08/11 00:46:13;;;;;;;9.50;6.40;;;17.20;99.90;;;;;;5025467;28;20041;-73
2023/08/11 00:48:42;;;;;;;8.65;6.10;;;17.20;99.90;;;;;;5000673;28;20030;-73
2023/08/11 00:51:13;;;;;;;10.70;7.38;;;17.10;99.90;;;;;;5031209;28;20073;-73
2023/08/11 00:53:40;;;;;;;9.82;7.13;;;17.20;99.90;;;;;;5031531;28;20094;-73
2023/08/11 00:56:07;;;;;;;9.32;6.45;;;17.10;99.90;;;;;;5026256;28;20115;-75
2023/08/11 00:58:33;;;;;;;10.70;6.88;;;17.10;99.90;;;;;;5013851;28;20037;-76
2023/08/11 01:00:59;;;;;;;8.95;6.50;;;17.10;99.90;;;;;;5014452;28;20033;-76
2023/08/11 01:03:25;;;;;;;12.45;7.25;;;17.00;99.90;;;;;;5020351;28;20494;-76
2023/08/11 01:06:16;;;;;;;9.20;6.63;;;16.90;99.90;;;;;;5028284;28;20397;-76
2023/08/11 01:08:47;;;;;;;12.00;8.43;;;16.90;99.90;;;;;;5017005;28;20532;-76
2023/08/11 01:11:28;;;;;;;10.75;8.07;;;16.90;99.90;;;;;;5030934;28;20049;-76
2023/08/11 01:14:02;;;;;;;10.63;7.70;;;16.90;99.90;;;;;;5038443;28;20128;-76
2023/08/11 01:16:29;;;;;;;10.07;6.97;;;16.80;99.90;;;;;;5010462;28;20053;-76
2023/08/11 01:18:56;;;;;;;9.77;7.30;;;16.80;99.90;;;;;;5031371;28;20112;-76
2023/08/11 01:21:25;;;;;;;11.48;8.13;;;16.80;99.90;;;;;;5033839;28;20441;-76
2023/08/11 01:23:51;;;;;;;11.88;7.65;;;16.70;99.90;;;;;;5033256;28;20536;-76
2023/08/11 01:26:17;;;;;;;11.23;7.80;;;16.70;99.90;;;;;;5016125;28;20049;-76
2023/08/11 01:28:43;;;;;;;13.27;8.57;;;16.70;99.90;;;;;;5033347;28;20045;-76
2023/08/11 01:31:08;;;;;;;11.85;8.60;;;16.70;99.90;;;;;;5034421;28;20048;-76
2023/08/11 01:33:35;;;;;;;10.98;8.05;;;16.80;99.90;;;;;;5033542;28;20047;-76
2023/08/11 01:36:01;;;;;;;11.10;8.27;;;16.70;99.90;;;;;;5030913;28;20037;-76
2023/08/11 01:38:26;;;;;;;12.63;7.50;;;16.70;99.90;;;;;;5032636;28;20040;-76
2023/08/11 01:40:52;;;;;;;11.65;7.47;;;16.70;99.90;;;;;;5034867;28;20401;-76
2023/08/11 01:43:19;;;;;;;10.25;7.32;;;16.70;99.90;;;;;;5016586;28;20091;-76
2023/08/11 01:45:48;;;;;;;11.65;7.78;;;16.60;99.90;;;;;;5032732;28;20142;-76
2023/08/11 01:48:15;;;;;;;10.25;7.10;;;16.50;99.90;;;;;;5033680;28;20041;-75
2023/08/11 01:50:42;;;;;;;11.30;7.47;;;16.50;99.90;;;;;;5017326;28;20041;-75
2023/08/11 01:53:07;;;;;;;11.50;7.72;;;16.40;99.90;;;;;;5016536;28;20045;-75
2023/08/11 01:55:33;;;;;;;13.13;8.63;;;16.40;99.90;;;;;;5008373;28;20046;-76
2023/08/11 01:57:59;;;;;;;11.80;9.32;;;16.40;99.90;;;;;;5031315;28;20604;-76
2023/08/11 02:00:25;;;;;;;14.90;10.15;;;16.50;99.90;;;;;;5033437;28;20139;-75
2023/08/11 02:02:52;;;;;;;13.27;10.77;;;16.50;99.90;;;;;;5033367;28;20506;-75
2023/08/11 02:05:18;;;;;;;15.38;10.77;;;16.50;99.90;;;;;;5014050;28;20033;-75
2023/08/11 02:07:45;;;;;;;13.98;9.95;;;16.50;99.90;;;;;;5033364;28;20490;-76
2023/08/11 02:10:11;;;;;;;13.55;10.75;;;16.40;99.90;;;;;;5033303;28;20037;-75
2023/08/11 02:12:38;;;;;;;14.25;11.02;;;16.40;99.90;;;;;;5033948;28;20037;-76
2023/08/11 02:15:07;;;;;;;15.73;11.02;;;16.40;99.90;;;;;;5033194;28;20034;-76
2023/08/11 02:17:34;;;;;;;13.13;10.80;;;16.40;99.90;;;;;;5033654;28;20124;-76
2023/08/11 02:20:03;;;;;;;12.48;9.75;;;16.30;99.90;;;;;;5032699;28;20033;-76
2023/08/11 02:22:28;;;;;;;14.38;11.15;;;16.30;99.90;;;;;;5016722;28;20041;-75
2023/08/11 02:24:54;;;;;;;12.77;10.23;;;16.30;99.90;;;;;;5030617;28;20117;-75
2023/08/11 02:27:20;;;;;;;14.95;11.00;;;16.20;99.90;;;;;;5032895;28;20046;-76
2023/08/11 02:29:45;;;;;;;14.88;11.88;;;16.30;99.90;;;;;;5033273;28;20080;-76
2023/08/11 02:32:11;;;;;;;13.60;11.55;;;16.30;99.90;;;;;;5018259;28;20059;-76
2023/08/11 02:34:37;;;;;;;12.85;11.25;;;16.30;99.90;;;;;;5010227;28;20096;-76
2023/08/11 02:37:03;;;;;;;13.05;11.10;;;16.20;99.90;;;;;;5033757;28;20489;-76
2023/08/11 02:39:29;;;;;;;14.30;10.80;;;16.20;99.90;;;;;;5032804;28;20046;-76
2023/08/11 02:41:55;;;;;;;13.23;11.30;;;16.10;99.90;;;;;;5032413;28;20092;-76
2023/08/11 02:44:22;;;;;;;13.02;11.55;;;16.10;99.90;;;;;;5009220;28;20477;-76
2023/08/11 02:46:47;;;;;;;13.77;11.15;;;16.10;99.90;;;;;;5032535;28;20044;-76
2023/08/11 02:49:13;;;;;;;13.75;11.05;;;16.10;99.90;;;;;;5016097;28;20034;-76
2023/08/11 02:51:38;;;;;;;16.50;11.38;;;16.10;99.90;;;;;;5032613;28;20052;-76
2023/08/11 02:54:04;;;;;;;15.27;11.77;;;16.00;99.90;;;;;;5019733;28;20085;-76
2023/08/11 02:56:30;;;;;;;13.48;11.05;;;16.00;99.90;;;;;;5032474;28;20041;-76
2023/08/11 02:58:56;;;;;;;13.77;11.05;;;16.00;99.90;;;;;;5031883;28;20042;-76
2023/08/11 03:01:23;;;;;;;13.98;11.38;;;16.00;99.90;;;;;;5031782;28;20041;-76
2023/08/11 03:03:49;;;;;;;14.38;11.73;;;15.90;99.90;;;;;;5021451;28;20202;-76
2023/08/11 03:06:14;;;;;;;15.63;11.63;;;16.00;99.90;;;;;;5015386;28;20493;-76
2023/08/11 03:08:40;;;;;;;14.13;11.20;;;16.00;99.90;;;;;;5033590;28;20108;-76
2023/08/11 03:11:06;;;;;;;14.25;11.20;;;16.00;99.90;;;;;;5021873;28;20044;-76
2023/08/11 03:13:32;;;;;;;15.70;11.15;;;15.90;99.90;;;;;;5014060;28;20060;-75
2023/08/11 03:15:58;;;;;;;16.40;10.45;;;16.00;99.90;;;;;;5002965;28;20073;-76
2023/08/11 03:18:24;;;;;;;13.52;10.07;;;15.90;99.90;;;;;;5006626;28;20052;-76
2023/08/11 03:20:52;;;;;;;13.68;10.60;;;15.90;99.90;;;;;;5010753;28;20045;-75
2023/08/11 03:23:18;;;;;;;15.10;10.60;;;15.90;99.90;;;;;;5019737;28;20041;-75
2023/08/11 03:25:43;;;;;;;13.35;9.93;;;15.80;99.90;;;;;;5022842;28;20038;-75
2023/08/11 03:28:09;;;;;;;13.35;9.77;;;15.80;99.90;;;;;;5037708;28;20052;-76
2023/08/11 03:30:35;;;;;;;14.05;10.35;;;15.80;99.90;;;;;;5008867;28;20049;-76
2023/08/11 03:33:01;;;;;;;15.85;10.45;;;15.80;99.90;;;;;;5026129;28;20053;-76
2023/08/11 03:35:26;;;;;;;11.98;8.93;;;15.80;99.90;;;;;;5006494;28;20448;-76
2023/08/11 03:37:52;;;;;;;13.13;9.90;;;15.80;99.90;;;;;;5014761;28;20076;-76
2023/08/11 03:40:17;;;;;;;11.95;9.98;;;15.80;99.90;;;;;;5027528;28;20506;-76
2023/08/11 03:42:43;;;;;;;12.82;9.63;;;15.80;99.90;;;;;;5030683;28;20490;-76
2023/08/11 03:45:13;;;;;;;11.38;9.38;;;15.80;99.90;;;;;;5027029;28;20065;-75
2023/08/11 03:47:40;;;;;;;14.45;9.95;;;15.70;99.90;;;;;;5009502;28;20112;-76
2023/08/11 03:50:07;;;;;;;12.23;9.85;;;15.70;99.90;;;;;;5028136;28;20055;-76
2023/08/11 03:52:33;;;;;;;12.20;9.63;;;15.70;99.90;;;;;;5030824;28;20421;-76
2023/08/11 03:54:59;;;;;;;13.00;10.32;;;15.70;99.90;;;;;;5032112;28;20117;-76
2023/08/11 03:57:25;;;;;;;12.30;10.13;;;15.80;99.90;;;;;;5021336;28;20042;-76
2023/08/11 03:59:51;;;;;;;12.10;9.23;;;15.70;99.90;;;;;;4997645;28;20513;-76
2023/08/11 04:02:17;;;;;;;12.80;9.57;;;15.70;99.90;;;;;;5000019;28;20038;-76
2023/08/11 04:04:43;;;;;;;14.32;9.90;;;15.70;99.90;;;;;;5030692;28;20045;-76
2023/08/11 04:07:09;;;;;;;12.02;9.60;;;15.70;99.90;;;;;;5012145;28;20540;-76
2023/08/11 04:09:34;;;;;;;12.68;9.70;;;15.80;99.90;;;;;;4999197;28;20037;-76
2023/08/11 04:12:00;;;;;;;12.68;9.95;;;15.80;99.90;;;;;;5006893;28;20072;-76
2023/08/11 04:14:25;;;;;;;13.48;9.55;;;15.70;99.90;;;;;;5012189;28;20034;-76
2023/08/11 04:16:51;;;;;;;11.85;9.18;;;15.70;99.90;;;;;;5043277;28;20076;-76
2023/08/11 04:19:17;;;;;;;13.73;9.18;;;15.70;99.90;;;;;;5034187;28;20041;-76
2023/08/11 04:21:42;;;;;;;12.15;9.48;;;15.70;99.90;;;;;;4997674;28;20049;-76
2023/08/11 04:24:08;;;;;;;14.65;9.27;;;15.70;99.90;;;;;;5003180;28;20030;-76
2023/08/11 04:26:34;;;;;;;13.30;9.73;;;15.80;99.90;;;;;;5031568;28;20104;-76
2023/08/11 04:29:01;;;;;;;12.88;9.32;;;15.70;99.90;;;;;;5029009;28;20041;-76
2023/08/11 04:31:27;;;;;;;14.25;8.82;;;15.70;99.90;;;;;;5029356;28;20494;-76
2023/08/11 04:33:53;;;;;;;15.77;9.93;;;15.90;99.90;;;;;;5014712;28;20382;-76
2023/08/11 04:36:19;;;;;;;12.90;9.27;;;15.90;99.90;;;;;;5023101;28;20049;-76
2023/08/11 04:38:45;;;;;;;12.93;9.60;;;15.90;99.90;;;;;;4999047;28;20128;-76
2023/08/11 04:41:10;;;;;;;12.98;9.35;;;15.90;99.90;;;;;;5016304;28;20048;-76
2023/08/11 04:43:36;;;;;;;13.82;8.98;;;16.00;99.90;;;;;;5005769;28;20038;-76
2023/08/11 04:46:03;;;;;;;12.45;9.20;;;15.90;99.90;;;;;;5019199;28;20069;-76
2023/08/11 04:48:29;;;;;;;13.73;9.43;;;15.90;99.90;;;;;;5017992;28;20497;-76
2023/08/11 04:50:56;;;;;;;13.20;8.55;;;16.00;99.90;;;;;;5030117;28;20048;-76
2023/08/11 04:53:22;;;;;;;12.30;8.88;;;16.00;99.90;;;;;;5008315;28;20088;-76
2023/08/11 04:55:48;;;;;;;11.98;8.50;;;15.90;99.90;;;;;;5022719;28;20037;-76
2023/08/11 04:58:14;;;;;;;12.20;8.93;;;15.80;99.90;;;;;;5020220;28;20205;-76
2023/08/11 05:00:39;;;;;;;12.45;9.18;;;15.90;99.90;;;;;;5033205;28;20041;-76
2023/08/11 05:03:05;;;;;;;12.60;8.93;;;15.80;99.90;;;;;;5032764;28;20040;-76
2023/08/11 05:05:30;;;;;;;13.60;9.52;;;15.90;99.90;;;;;;5018395;28;20050;-76
2023/08/11 05:07:56;;;;;;;13.55;8.57;;;15.90;99.90;;;;;;5016866;28;20124;-76
2023/08/11 05:10:22;;;;;;;12.10;8.88;;;15.80;99.90;;;;;;5011895;28;20033;-75
2023/08/11 05:12:48;;;;;;;12.32;8.70;;;15.90;99.90;;;;;;5016760;28;20040;-76
2023/08/11 05:15:14;;;;;;;11.38;8.13;;;15.90;99.90;;;;;;5009834;28;20038;-76
2023/08/11 05:17:40;;;;;;;13.55;8.20;;;15.90;99.90;;;;;;5027780;28;20127;-76
2023/08/11 05:20:09;;;;;;;11.98;8.27;;;16.00;99.90;;;;;;5040253;28;20053;-76
2023/08/11 05:22:36;;;;;;;12.05;7.97;;;16.00;99.90;;;;;;5005692;28;20041;-76
2023/08/11 05:25:05;;;;;;;11.93;8.65;;;16.00;99.90;;;;;;5016220;28;20083;-76
2023/08/11 05:27:30;;;;;;;11.52;7.82;;;16.00;99.90;;;;;;5005465;28;20053;-76
2023/08/11 05:29:56;;;;;;;11.77;7.60;;;16.10;99.90;;;;;;5008075;28;20059;-76
2023/08/11 05:32:23;;;;;;;11.55;7.43;;;16.00;99.90;;;;;;5016311;28;20386;-76
2023/08/11 05:34:49;;;;;;;11.70;7.10;;;16.10;99.90;;;;;;5035906;28;20379;-76
2023/08/11 05:37:16;;;;;;;10.32;7.13;;;16.20;99.90;;;;;;5029832;28;20055;-76
2023/08/11 05:39:42;;;;;;;9.52;7.25;;;16.20;99.90;;;;;;5007145;28;20116;-76
2023/08/11 05:42:08;;;;;;;10.77;7.07;;;16.30;99.90;;;;;;5032918;28;20095;-76
2023/08/11 05:44:34;;;;;;;11.10;7.32;;;16.40;99.90;;;;;;5014323;28;20042;-75
2023/08/11 05:47:00;;;;;;;12.13;7.32;;;16.30;99.90;;;;;;5031551;28;20432;-76
2023/08/11 05:49:26;;;;;;;11.88;7.15;;;16.40;99.90;;;;;;5023369;28;20063;-76
2023/08/11 05:51:52;;;;;;;12.13;6.97;;;16.40;99.90;;;;;;5034338;28;20119;-76
2023/08/11 05:54:17;;;;;;;12.00;6.53;;;16.50;99.90;;;;;;5005990;28;20053;-76
2023/08/11 05:56:43;;;;;;;10.93;6.68;;;16.60;99.90;;;;;;5011754;28;20045;-76
2023/08/11 05:59:09;;;;;;;10.85;6.40;;;16.70;99.90;;;;;;5020855;28;20072;-76
2023/08/11 06:01:35;;;;;;;11.25;6.22;;;16.70;99.90;;;;;;5022168;28;20029;-75
2023/08/11 06:04:01;;;;;;;10.77;6.88;;;16.80;99.90;;;;;;5004984;28;20382;-75
2023/08/11 06:06:27;;;;;;;9.07;6.65;;;16.70;99.90;;;;;;5003580;28;20041;-76
2023/08/11 06:08:54;;;;;;;11.75;6.80;;;16.80;99.90;;;;;;5015650;28;20037;-76
2023/08/11 06:11:20;;;;;;;10.10;6.03;;;16.90;99.90;;;;;;5025830;28;20088;-76
2023/08/11 06:13:46;;;;;;;10.65;6.13;;;16.90;99.90;;;;;;5010003;28;20057;-75
2023/08/11 06:16:11;;;;;;;12.07;6.63;;;17.00;99.90;;;;;;5017114;28;20041;-76
2023/08/11 06:18:37;;;;;;;10.40;6.90;;;17.20;99.90;;;;;;5046926;28;20041;-76
2023/08/11 06:21:04;;;;;;;10.80;6.22;;;17.20;99.90;;;;;;5029574;28;20050;-76
2023/08/11 06:23:31;;;;;;;10.98;6.22;;;17.30;99.90;;;;;;5028004;28;20445;-76
2023/08/11 06:25:56;;;;;;;11.00;6.10;;;17.40;99.90;;;;;;5031030;28;20116;-76
2023/08/11 06:28:22;;;;;;;9.10;5.88;;;17.40;99.90;;;;;;5019409;28;20128;-75
2023/08/11 06:30:47;;;;;;;8.98;5.28;;;17.50;99.90;;;;;;5023030;28;20065;-75
2023/08/11 06:33:13;;;;;;;9.73;5.57;;;17.50;99.90;;;;;;5031641;28;20037;-76
2023/08/11 06:35:38;;;;;;;10.75;5.88;;;17.70;99.90;;;;;;5002553;28;20038;-76
2023/08/11 06:38:04;;;;;;;8.82;5.63;;;17.80;99.90;;;;;;5022713;28;20037;-75
2023/08/11 06:40:29;;;;;;;8.80;5.60;;;17.80;99.90;;;;;;4996956;28;20483;-76
2023/08/11 06:42:55;;;;;;;10.73;5.55;;;17.90;99.90;;;;;;4996418;28;20120;-75
2023/08/11 06:45:21;;;;;;;9.60;5.32;;;17.90;99.90;;;;;;5002386;28;20080;-75
2023/08/11 06:47:46;;;;;;;8.40;5.25;;;17.90;99.90;;;;;;5031512;28;20030;-75
2023/08/11 06:50:12;;;;;;;9.25;5.18;;;18.10;99.90;;;;;;5014532;28;20044;-75
2023/08/11 06:52:37;;;;;;;11.98;5.90;;;18.20;99.90;;;;;;4999345;28;20041;-75
2023/08/11 06:55:04;;;;;;;8.95;5.25;;;18.40;99.90;;;;;;5020138;28;20042;-75
2023/08/11 06:57:29;;;;;;;9.57;4.70;;;18.40;99.90;;;;;;5031292;28;20490;-75
2023/08/11 06:59:56;;;;;;;7.80;5.05;;;18.40;99.90;;;;;;5013059;28;20056;-75
2023/08/11 07:02:21;;;;;;;7.85;4.75;;;18.40;99.90;;;;;;5005218;28;20044;-75
2023/08/11 07:04:47;;;;;;;9.30;5.10;;;18.60;99.90;;;;;;5026654;28;20030;-76
2023/08/11 07:07:13;;;;;;;7.90;4.65;;;18.70;99.90;;;;;;5012838;28;20041;-75
2023/08/11 07:09:38;;;;;;;7.18;4.25;;;18.80;99.90;;;;;;5010933;28;20034;-75
2023/08/11 07:12:04;;;;;;;10.07;4.68;;;18.80;99.90;;;;;;5007754;28;20047;-75
2023/08/11 07:14:30;;;;;;;7.47;4.93;;;18.90;99.90;;;;;;5005699;28;20042;-75
2023/08/11 07:16:55;;;;;;;8.45;4.82;;;18.90;99.90;;;;;;5018102;28;20045;-75
2023/08/11 07:19:21;;;;;;;8.43;4.50;;;19.00;99.90;;;;;;5041050;28;20037;-75
2023/08/11 07:21:46;;;;;;;9.70;5.10;;;19.00;99.90;;;;;;5030297;28;20040;-76
2023/08/11 07:24:12;;;;;;;8.75;5.20;;;19.20;99.90;;;;;;5031305;28;20037;-76
2023/08/11 07:26:38;;;;;;;7.88;4.50;;;19.20;99.90;;;;;;4996028;28;20050;-75
2023/08/11 07:29:03;;;;;;;9.05;5.25;;;19.20;99.90;;;;;;5012713;28;20436;-76
2023/08/11 07:31:29;;;;;;;8.38;4.75;;;19.40;99.90;;;;;;5029418;28;20039;-75
2023/08/11 07:33:55;;;;;;;8.40;4.70;;;19.50;99.90;;;;;;5024605;28;20048;-75
2023/08/11 07:36:20;;;;;;;8.45;4.40;;;19.60;99.90;;;;;;5037288;28;20186;-76
2023/08/11 07:38:46;;;;;;;8.75;4.47;;;19.60;99.90;;;;;;5026977;28;20083;-76
2023/08/11 07:41:12;;;;;;;7.95;4.72;;;19.70;99.90;;;;;;5016611;28;20040;-76
2023/08/11 07:43:38;;;;;;;8.35;3.67;;;19.80;99.90;;;;;;5024148;28;20037;-76
2023/08/11 07:46:04;;;;;;;7.05;4.35;;;19.90;99.90;;;;;;5027850;28;20124;-78
2023/08/11 07:48:29;;;;;;;9.02;4.88;;;19.90;99.90;;;;;;5031270;28;20485;-81
2023/08/11 07:50:55;;;;;;;8.63;4.40;;;20.10;99.90;;;;;;5031011;28;20037;-74
2023/08/11 07:53:21;;;;;;;6.88;4.25;;;20.10;99.90;;;;;;5012909;28;20037;-74
2023/08/11 07:55:46;;;;;;;7.97;4.38;;;20.20;99.90;;;;;;5013155;28;20083;-75
2023/08/11 07:58:12;;;;;;;7.72;4.43;;;20.30;99.90;;;;;;5003551;28;20073;-77
2023/08/11 08:00:37;;;;;;;7.55;4.00;;;20.50;99.90;;;;;;5013036;28;20374;-77
2023/08/11 08:03:04;;;;;;;7.55;4.25;;;20.50;99.90;;;;;;5022573;28;20038;-76
2023/08/11 08:05:30;;;;;;;9.13;4.20;;;20.60;99.90;;;;;;5009214;28;20084;-77
2023/08/11 08:07:55;;;;;;;7.68;4.45;;;20.60;99.90;;;;;;5023612;28;20057;-77
2023/08/11 08:10:22;;;;;;;7.18;3.60;;;20.60;99.90;;;;;;5027215;28;20521;-76
2023/08/11 08:12:47;;;;;;;6.88;4.00;;;20.80;99.90;;;;;;5014706;28;20034;-76
2023/08/11 08:15:14;;;;;;;7.13;4.47;;;20.90;99.90;;;;;;5013574;28;20052;-76
2023/08/11 08:17:40;;;;;;;7.93;4.00;;;20.90;99.90;;;;;;5027616;28;20061;-76
2023/08/11 08:20:13;;;;;;;7.70;4.05;;;20.90;99.90;;;;;;5010151;28;20069;-76
2023/08/11 08:22:40;;;;;;;6.55;3.88;;;20.90;99.90;;;;;;5007560;28;20037;-77
2023/08/11 08:25:07;;;;;;;9.20;4.45;;;21.00;99.90;;;;;;5009321;28;20042;-76
2023/08/11 08:27:37;;;;;;;7.93;4.05;;;21.10;99.90;;;;;;5028161;28;20136;-77
2023/08/11 08:30:04;;;;;;;27.33;24.83;;;21.10;99.90;;;;;;5017040;28;20049;-77
2023/08/11 08:32:30;;;;;;;8.13;4.35;;;21.30;99.90;;;;;;5035039;28;20087;-77
2023/08/11 08:34:56;;;;;;;6.47;3.92;;;21.30;99.90;;;;;;5033410;28;20037;-77
2023/08/11 08:37:24;;;;;;;8.90;4.32;;;21.40;99.90;;;;;;5016021;28;20048;-77
2023/08/11 08:39:51;;;;;;;7.38;3.78;;;21.50;99.90;;;;;;5033656;28;20041;-76
2023/08/11 08:42:17;;;;;;;8.02;4.10;;;21.60;99.90;;;;;;5033506;28;20060;-77
2023/08/11 08:44:44;;;;;;;7.38;4.13;;;21.60;99.90;;;;;;5007814;28;20064;-75
2023/08/11 08:47:12;;;;;;;11.23;4.40;;;21.70;99.90;;;;;;5034965;28;20098;-74
2023/08/11 08:49:38;;;;;;;8.15;4.10;;;21.80;99.90;;;;;;5015865;28;20087;-74
2023/08/11 08:52:06;;;;;;;7.22;4.03;;;21.90;99.90;;;;;;5016527;28;20048;-74
2023/08/11 08:54:32;;;;;;;8.25;4.03;;;21.90;99.90;;;;;;5024709;28;20132;-74
2023/08/11 08:56:59;;;;;;;7.93;3.70;;;22.00;99.90;;;;;;5011314;28;20049;-74
2023/08/11 08:59:24;;;;;;;6.97;3.70;;;22.10;99.90;;;;;;5035825;28;20563;-74
2023/08/11 09:01:50;;;;;;;7.25;3.45;;;22.20;99.90;;;;;;5016929;28;20065;-75
2023/08/11 09:04:18;;;;;;;8.65;3.80;;;22.30;99.90;;;;;;5013183;28;20466;-75
2023/08/11 09:06:44;;;;;;;7.75;3.67;;;22.30;99.90;;;;;;5032492;28;20045;-74
2023/08/11 09:09:10;;;;;;;7.07;3.53;;;22.30;99.90;;;;;;5032881;28;20041;-74
2023/08/11 09:11:38;;;;;;;7.50;3.90;;;22.30;99.90;;;;;;5016808;28;20033;-74
2023/08/11 09:14:05;;;;;;;7.07;3.30;;;22.40;99.90;;;;;;5031909;28;20052;-74
2023/08/11 09:16:35;;;;;;;7.63;3.75;;;22.50;99.90;;;;;;5016154;28;20485;-74
2023/08/11 09:19:01;;;;;;;8.30;3.45;;;22.50;99.90;;;;;;5031793;28;20137;-74
2023/08/11 09:21:27;;;;;;;5.25;3.10;;;22.60;99.90;;;;;;5013094;28;20521;-74
2023/08/11 09:23:54;;;;;;;8.43;3.67;;;22.70;99.90;;;;;;5029583;28;20046;-74
2023/08/11 09:26:24;;;;;;;7.15;3.40;;;22.70;99.90;;;;;;5009763;28;20475;-74
2023/08/11 09:28:50;;;;;;;7.35;3.58;;;22.80;99.90;;;;;;5032679;28;20056;-74
2023/08/11 09:31:23;;;;;;;5.82;3.17;;;22.80;99.90;;;;;;5032716;28;20037;-74
2023/08/11 09:33:49;;;;;;;9.13;3.60;;;22.90;99.90;;;;;;5013654;28;20038;-74
2023/08/11 09:36:17;;;;;;;9.40;3.70;;;23.00;99.90;;;;;;5031384;28;20457;-74
2023/08/11 09:38:46;;;;;;;7.30;3.47;;;23.10;99.90;;;;;;5034127;28;20052;-74
2023/08/11 09:41:13;;;;;;;7.22;3.10;;;23.20;99.90;;;;;;5015836;28;20040;-75
2023/08/11 09:43:39;;;;;;;6.72;3.38;;;23.30;99.90;;;;;;5009574;28;20036;-74
2023/08/11 09:46:04;;;;;;;7.47;3.10;;;23.40;99.90;;;;;;5030492;28;20039;-74
2023/08/11 09:48:31;;;;;;;7.60;3.35;;;23.30;99.90;;;;;;5029260;28;20063;-74
2023/08/11 09:50:57;;;;;;;9.73;3.40;;;23.40;99.90;;;;;;5003128;28;20383;-74
2023/08/11 09:53:24;;;;;;;7.72;3.30;;;23.40;99.90;;;;;;5024736;28;20092;-74
2023/08/11 09:55:54;;;;;;;7.97;3.72;;;23.50;99.90;;;;;;5032896;28;20476;-74
2023/08/11 09:58:24;;;;;;;6.97;3.42;;;23.40;99.90;;;;;;5033222;28;20596;-75
2023/08/11 10:00:52;;;;;;;8.32;3.10;;;23.60;99.90;;;;;;5015086;28;20037;-74
2023/08/11 10:03:28;;;;;;;8.30;3.03;;;23.70;99.90;;;;;;5018307;28;20091;-75
2023/08/11 10:05:57;;;;;;;7.18;3.42;;;23.90;99.90;;;;;;5014926;28;20482;-74
2023/08/11 10:08:25;;;;;;;8.57;3.10;;;23.80;99.90;;;;;;5012525;28;20056;-75
2023/08/11 10:10:51;;;;;;;5.43;2.85;;;23.90;99.90;;;;;;5012930;28;20069;-75
2023/08/11 10:13:23;;;;;;;8.52;3.42;;;24.10;99.90;;;;;;5001560;28;20088;-75
2023/08/11 10:15:50;;;;;;;6.32;3.20;;;24.10;99.90;;;;;;5018162;28;20112;-74
2023/08/11 10:18:17;;;;;;;5.63;2.70;;;24.10;99.90;;;;;;5022207;28;20037;-75
2023/08/11 10:20:43;;;;;;;7.22;3.20;;;24.00;99.90;;;;;;5021673;28;20571;-79
2023/08/11 10:23:09;;;;;;;5.68;2.90;;;24.10;99.90;;;;;;5011753;28;20033;-74
2023/08/11 10:25:35;;;;;;;8.82;3.45;;;24.10;99.90;;;;;;5032859;28;20034;-74
2023/08/11 10:28:02;;;;;;;6.55;3.10;;;24.20;99.90;;;;;;5015222;28;20090;-74
2023/08/11 10:30:28;;;;;;;10.00;3.10;;;24.30;99.90;;;;;;5008263;28;20045;-74
2023/08/11 10:33:06;;;;;;;5.90;2.85;;;24.30;99.90;;;;;;5032744;28;20045;-74
2023/08/11 10:35:51;;;;;;;5.47;3.13;;;24.30;99.90;;;;;;5008220;28;20037;-74
2023/08/11 10:38:27;;;;;;;5.45;2.60;;;24.50;99.90;;;;;;5011744;28;20485;-74
2023/08/11 10:41:17;;;;;;;6.43;3.30;;;24.40;99.90;;;;;;5034238;28;20116;-74
2023/08/11 10:43:47;;;;;;;7.25;3.00;;;24.50;99.90;;;;;;5021614;28;20041;-74
2023/08/11 10:46:26;;;;;;;9.95;3.47;;;24.50;99.90;;;;;;5030450;28;20056;-74
2023/08/11 10:48:54;;;;;;;5.65;2.97;;;24.60;99.90;;;;;;5024280;28;20052;-74
2023/08/11 10:51:29;;;;;;;8.68;3.13;;;24.60;99.90;;;;;;5016265;28;20129;-74
2023/08/11 10:53:57;;;;;;;7.40;3.03;;;24.60;99.90;;;;;;5012571;28;20037;-74
2023/08/11 10:56:47;;;;;;;6.80;2.65;;;24.70;99.90;;;;;;5012982;28;20056;-74
2023/08/11 10:59:14;;;;;;;6.10;2.63;;;24.70;99.90;;;;;;4997462;28;20096;-74
2023/08/11 11:01:42;;;;;;;7.97;3.08;;;24.70;99.90;;;;;;5003541;28;20120;-74
2023/08/11 11:04:09;;;;;;;6.05;3.25;;;24.60;99.90;;;;;;5012883;28;20495;-74
2023/08/11 11:06:36;;;;;;;6.65;3.13;;;24.70;99.90;;;;;;5025134;28;20175;-74
2023/08/11 11:09:05;;;;;;;6.82;3.05;;;24.80;99.90;;;;;;5007675;28;20123;-74
2023/08/11 11:11:30;;;;;;;7.00;3.63;;;24.80;99.90;;;;;;5001653;28;20052;-74
2023/08/11 11:13:57;;;;;;;7.07;2.67;;;24.80;99.90;;;;;;5016081;28;20037;-74
2023/08/11 11:16:23;;;;;;;6.78;2.83;;;24.90;99.90;;;;;;5019414;28;20094;-74
2023/08/11 11:18:49;;;;;;;5.85;2.90;;;25.00;99.90;;;;;;5032278;28;20049;-74
2023/08/11 11:21:17;;;;;;;7.60;3.15;;;24.90;99.90;;;;;;5026027;28;20117;-74
2023/08/11 11:23:48;;;;;;;7.63;3.08;;;25.00;99.90;;;;;;5023474;28;20025;-74
2023/08/11 11:26:19;;;;;;;6.90;2.95;;;25.00;99.90;;;;;;5028441;28;20575;-77
2023/08/11 11:28:45;;;;;;;9.02;2.80;;;25.00;99.90;;;;;;5012666;28;20395;-73
2023/08/11 11:31:11;;;;;;;6.78;3.05;;;25.00;99.90;;;;;;5018041;28;20046;-73
2023/08/11 11:33:37;;;;;;;10.95;3.15;;;25.00;99.90;;;;;;5014581;28;20091;-73
2023/08/11 11:36:02;;;;;;;7.15;2.50;;;25.10;99.90;;;;;;5032497;28;20045;-73
2023/08/11 11:38:28;;;;;;;6.55;3.10;;;25.20;99.90;;;;;;5012724;28;20044;-73
2023/08/11 11:40:53;;;;;;;7.28;3.28;;;25.20;99.90;;;;;;5012236;28;20033;-73
2023/08/11 11:43:20;;;;;;;7.05;2.90;;;25.10;99.90;;;;;;5012668;28;20041;-73
2023/08/11 11:45:48;;;;;;;7.30;3.22;;;25.00;99.90;;;;;;5023786;28;20034;-73
2023/08/11 11:48:13;;;;;;;8.05;2.65;;;25.00;99.90;;;;;;5005403;28;20033;-73
2023/08/11 11:50:40;;;;;;;6.43;2.80;;;24.90;99.90;;;;;;5020686;28;20057;-73
2023/08/11 11:53:06;;;;;;;5.85;2.75;;;25.00;99.90;;;;;;5026857;28;20041;-73
2023/08/11 11:55:31;;;;;;;9.93;2.88;;;25.00;99.90;;;;;;5030430;28;20034;-73
2023/08/11 11:57:57;;;;;;;5.90;2.88;;;24.90;99.90;;;;;;5007950;28;20052;-73
2023/08/11 12:00:25;;;;;;;5.72;2.83;;;24.90;99.90;;;;;;5023733;28;20038;-73
2023/08/11 12:02:51;;;;;;;6.90;3.08;;;25.00;99.90;;;;;;5009803;28;20508;-73
2023/08/11 12:05:17;;;;;;;5.40;2.80;;;25.00;99.90;;;;;;5025017;28;20057;-73
2023/08/11 12:07:43;;;;;;;6.75;2.72;;;25.00;99.90;;;;;;5021852;28;20065;-73
2023/08/11 12:10:09;;;;;;;6.75;2.88;;;25.00;99.90;;;;;;5031607;28;20045;-73
2023/08/11 12:12:35;;;;;;;8.43;2.97;;;25.10;99.90;;;;;;5026895;28;20132;-73
2023/08/11 12:15:06;;;;;;;7.00;3.10;;;25.10;99.90;;;;;;5028320;28;20453;-73
2023/08/11 12:17:33;;;;;;;11.55;3.53;;;25.10;99.90;;;;;;5027183;28;20034;-73
2023/08/11 12:20:04;;;;;;;8.15;3.10;;;25.20;99.90;;;;;;5013486;28;20374;-73
2023/08/11 12:22:30;;;;;;;6.10;2.67;;;25.30;99.90;;;;;;5030650;28;20033;-74
2023/08/11 12:24:55;;;;;;;5.38;3.05;;;25.30;99.90;;;;;;5013778;28;20390;-74
2023/08/11 12:27:21;;;;;;;9.48;3.08;;;25.30;99.90;;;;;;5030324;28;20055;-73
2023/08/11 12:29:46;;;;;;;7.43;3.53;;;25.30;99.90;;;;;;5014362;28;20041;-73
2023/08/11 12:32:13;;;;;;;6.10;2.58;;;25.30;99.90;;;;;;5013734;28;20049;-73
2023/08/11 12:34:38;;;;;;;6.47;2.90;;;25.40;99.90;;;;;;5030536;28;20042;-74
2023/08/11 12:37:04;;;;;;;8.20;3.00;;;25.40;99.90;;;;;;5014612;28;20144;-73
2023/08/11 12:39:31;;;;;;;9.40;3.15;;;25.50;99.90;;;;;;5030337;28;20099;-73